Time;durP1;ratioP1;P1;durP2;ratioP2;P2;SDS_P1;SDS_P2;PMS_P1;PMS_P2;Temp;Humidity;BMP_temperature;BMP_pressure;BME280_temperature;BME280_humidity;BME280_pressure;Samples;Min_cycle;Max_cycle;Signal;HPM_P1;HPM_P2
2021/11/30 00:01:18;;;;;;;15.23;10.30;;;;;;;3.14;78.39;99677.97;4981118;28;20061;-60
2021/11/30 00:03:45;;;;;;;21.10;10.70;;;;;;;3.14;78.15;99671.13;4981183;28;20108;-60
2021/11/30 00:06:11;;;;;;;16.60;10.15;;;;;;;3.15;78.67;99672.03;5014993;28;20037;-61
2021/11/30 00:08:38;;;;;;;19.30;9.55;;;;;;;3.15;78.52;99674.59;4964972;28;20484;-61
2021/11/30 00:11:06;;;;;;;14.85;9.57;;;;;;;3.15;78.44;99672.03;4980832;28;20033;-61
2021/11/30 00:13:34;;;;;;;18.80;9.68;;;;;;;3.12;78.87;99656.53;4981268;28;20144;-60
2021/11/30 00:15:59;;;;;;;21.48;9.98;;;;;;;3.12;78.76;99656.53;4981204;28;20030;-61
2021/11/30 00:18:27;;;;;;;16.63;8.65;;;;;;;3.13;78.48;99645.47;5014467;28;20034;-61
2021/11/30 00:20:54;;;;;;;17.63;10.25;;;;;;;3.13;78.73;99653.16;4980725;28;20036;-61
2021/11/30 00:23:19;;;;;;;18.50;9.38;;;;;;;3.12;78.57;99649.72;4996935;28;20045;-61
2021/11/30 00:25:46;;;;;;;12.30;8.05;;;;;;;3.12;78.41;99653.97;5013211;28;20111;-61
2021/11/30 00:28:12;;;;;;;15.80;9.60;;;;;;;3.12;78.90;99652.28;4980646;28;20037;-61
2021/11/30 00:30:38;;;;;;;15.15;9.38;;;;;;;3.13;78.60;99641.22;5014160;28;20038;-61
2021/11/30 00:33:05;;;;;;;11.65;8.57;;;;;;;3.12;78.52;99643.72;4996701;28;20095;-61
2021/11/30 00:35:31;;;;;;;16.00;8.77;;;;;;;3.10;78.66;99635.09;4996778;28;20554;-61
2021/11/30 00:37:59;;;;;;;16.40;9.43;;;;;;;3.07;78.33;99638.44;4980571;28;20038;-61
2021/11/30 00:40:25;;;;;;;13.57;7.85;;;;;;;3.08;78.25;99635.06;4996595;28;20160;-61
2021/11/30 00:42:51;;;;;;;13.40;7.45;;;;;;;3.10;78.87;99624.88;4996680;28;20030;-61
2021/11/30 00:45:19;;;;;;;12.80;7.45;;;;;;;3.09;78.58;99607.75;4996496;28;20042;-61
2021/11/30 00:47:56;;;;;;;12.60;8.43;;;;;;;3.07;78.78;99601.69;5014124;28;20038;-61
2021/11/30 00:50:26;;;;;;;14.93;7.18;;;;;;;3.05;77.70;99592.25;4980156;28;20049;-61
2021/11/30 00:52:53;;;;;;;13.15;7.22;;;;;;;3.07;78.63;99601.69;4980249;28;20034;-61
2021/11/30 00:55:19;;;;;;;10.95;6.78;;;;;;;3.07;78.50;99609.38;4996436;28;20092;-61
2021/11/30 00:57:45;;;;;;;11.20;7.63;;;;;;;3.09;78.11;99600.97;5014148;28;20049;-61
2021/11/30 01:00:16;;;;;;;10.20;6.28;;;;;;;3.07;78.38;99589.78;5013818;28;20041;-60
2021/11/30 01:02:42;;;;;;;10.75;6.28;;;;;;;3.09;78.62;99575.34;4996316;28;20060;-61
2021/11/30 01:05:09;;;;;;;9.98;5.88;;;;;;;3.09;78.43;99584.72;5013970;28;20030;-61
2021/11/30 01:07:35;;;;;;;10.10;6.57;;;;;;;3.07;78.64;99566.72;4995831;28;20056;-61
2021/11/30 01:10:09;;;;;;;10.98;6.38;;;;;;;3.07;78.26;99582.09;5013737;28;20037;-61
2021/11/30 01:12:35;;;;;;;11.73;5.57;;;;;;;3.07;78.62;99578.66;4996460;28;20061;-61
2021/11/30 01:15:01;;;;;;;16.23;5.72;;;;;;;3.08;78.41;99570.16;4996272;28;20304;-61
2021/11/30 01:17:28;;;;;;;8.52;5.35;;;;;;;3.10;78.25;99586.47;4980295;28;20052;-61
2021/11/30 01:19:53;;;;;;;10.25;4.82;;;;;;;3.08;78.50;99577.84;5013667;28;20038;-61
2021/11/30 01:22:19;;;;;;;9.18;5.72;;;;;;;3.07;78.29;99578.66;5012419;28;20492;-61
2021/11/30 01:24:44;;;;;;;8.50;5.18;;;;;;;3.10;78.25;99584.78;5013669;28;20026;-61
2021/11/30 01:27:09;;;;;;;7.28;5.22;;;;;;;3.11;78.18;99577.97;5014084;28;20045;-61
2021/11/30 01:29:35;;;;;;;11.57;5.43;;;;;;;3.10;78.17;99566.84;5013620;28;20445;-61
2021/11/30 01:32:00;;;;;;;9.45;5.72;;;;;;;3.11;78.43;99566.06;5013584;28;20037;-61
2021/11/30 01:34:27;;;;;;;14.07;5.40;;;;;;;3.11;78.78;99560.94;5012604;28;20042;-61
2021/11/30 01:36:53;;;;;;;14.80;5.78;;;;;;;3.10;78.55;99568.53;5013467;28;20061;-61
2021/11/30 01:39:19;;;;;;;11.82;6.55;;;;;;;3.12;78.25;99561.78;5013694;28;20140;-61
2021/11/30 01:41:45;;;;;;;12.40;5.78;;;;;;;3.09;78.54;99549.75;5013315;28;20552;-61
2021/11/30 01:44:30;;;;;;;11.73;5.05;;;;;;;3.08;78.01;99553.13;4996020;28;20037;-61
2021/11/30 01:49:42;;;;;;;7.53;5.30;;;;;;;3.07;78.29;99542.81;4996004;28;20397;-60
2021/11/30 01:52:10;;;;;;;8.27;6.20;;;;;;;3.08;78.24;99524.06;4995686;28;20042;-61
2021/11/30 01:54:39;;;;;;;8.77;6.03;;;;;;;3.07;78.32;99522.31;4979661;28;20512;-60
2021/11/30 01:57:10;;;;;;;6.85;5.45;;;;;;;3.10;78.28;99514.75;4979531;28;20524;-61
2021/11/30 01:59:36;;;;;;;9.52;4.95;;;;;;;3.10;78.64;99522.44;4979716;28;20492;-61
2021/11/30 02:02:02;;;;;;;9.68;5.13;;;;;;;3.09;77.77;99513.91;5013193;28;20104;-61
2021/11/30 02:04:28;;;;;;;6.63;5.18;;;;;;;3.11;78.33;99519.06;5013073;28;20034;-61
2021/11/30 02:06:54;;;;;;;10.43;5.63;;;;;;;3.11;78.45;99530.19;4979521;28;20030;-61
2021/11/30 02:09:20;;;;;;;9.63;5.18;;;;;;;3.11;78.43;99530.19;4995785;28;20034;-61
2021/11/30 02:11:47;;;;;;;8.10;5.90;;;;;;;3.11;78.53;99521.63;5013121;28;20033;-61
2021/11/30 02:14:13;;;;;;;14.52;5.30;;;;;;;3.13;78.37;99532.81;4979420;28;20038;-61
2021/11/30 02:16:39;;;;;;;13.50;5.07;;;;;;;3.12;78.40;99529.34;4995488;28;20044;-61
2021/11/30 02:19:04;;;;;;;6.55;5.03;;;;;;;3.13;77.86;99533.66;5013127;28;20393;-61
2021/11/30 02:21:35;;;;;;;10.13;5.20;;;;;;;3.14;78.17;99537.13;4999171;28;20030;-61
2021/11/30 02:24:01;;;;;;;10.23;5.13;;;;;;;3.13;78.07;99520.84;4983070;28;20049;-61
2021/11/30 02:26:28;;;;;;;7.22;4.53;;;;;;;3.13;78.67;99527.69;4982834;28;20044;-61
2021/11/30 02:28:57;;;;;;;10.70;4.72;;;;;;;3.16;78.18;99525.25;4983010;28;20085;-61
2021/11/30 02:31:27;;;;;;;6.47;4.90;;;;;;;3.14;78.65;99502.13;4999080;28;20121;-61
2021/11/30 02:33:57;;;;;;;9.60;4.90;;;;;;;3.16;78.43;99497.94;5022454;22;20416;-54
2021/11/30 02:36:48;;;;;;;8.85;4.45;;;;;;;3.15;78.32;99488.50;5002556;28;20091;-54
2021/11/30 02:39:16;;;;;;;7.05;4.40;;;;;;;3.15;78.63;99485.09;5002108;28;20505;-54
2021/11/30 02:41:51;;;;;;;7.70;4.40;;;;;;;3.14;78.37;99479.06;5002049;28;20484;-54
2021/11/30 02:44:25;;;;;;;7.47;5.15;;;;;;;3.15;78.23;99479.97;5002426;28;20519;-55
2021/11/30 02:46:55;;;;;;;7.22;4.10;;;;;;;3.14;78.59;99457.72;5018750;28;20374;-54
2021/11/30 02:49:33;;;;;;;11.35;4.88;;;;;;;3.14;78.41;99461.16;5018234;28;20039;-54
2021/11/30 02:52:06;;;;;;;7.18;3.90;;;;;;;3.15;78.36;99457.78;5035942;28;20038;-55
2021/11/30 02:54:38;;;;;;;8.25;4.38;;;;;;;3.15;78.85;99447.53;5035758;28;20044;-55
2021/11/30 02:57:06;;;;;;;12.07;4.57;;;;;;;3.14;78.63;99444.91;5018269;28;20057;-54
2021/11/30 02:59:37;;;;;;;9.32;4.57;;;;;;;3.14;78.69;99432.13;5001609;28;20484;-54
2021/11/30 03:02:16;;;;;;;7.18;5.78;;;;;;;3.13;77.96;99436.34;5002081;28;20035;-55
2021/11/30 03:04:48;;;;;;;7.55;4.43;;;;;;;3.13;78.26;99426.09;5018005;28;20120;-54
2021/11/30 03:07:20;;;;;;;7.00;4.20;;;;;;;3.17;78.61;99427.13;5001830;28;20099;-54
2021/11/30 03:09:53;;;;;;;9.18;5.03;;;;;;;3.16;78.02;99423.66;5001728;28;20400;-55
2021/11/30 03:12:27;;;;;;;19.83;6.05;;;;;;;3.15;78.57;99405.69;5001349;28;20041;-54
2021/11/30 03:14:52;;;;;;;7.47;4.82;;;;;;;3.18;78.18;99405.81;5001490;28;20030;-54
2021/11/30 03:17:26;;;;;;;7.53;4.35;;;;;;;3.16;78.64;99394.63;5017745;28;20091;-55
2021/11/30 03:19:57;;;;;;;7.07;4.25;;;;;;;3.16;78.56;99410.00;5001137;28;20038;-54
2021/11/30 03:22:30;;;;;;;9.15;4.38;;;;;;;3.16;78.36;99397.19;5002029;28;20127;-54
2021/11/30 03:25:01;;;;;;;13.50;5.78;;;;;;;3.17;78.84;99404.06;5001485;28;20049;-54
2021/11/30 03:27:29;;;;;;;7.03;4.75;;;;;;;3.18;78.81;99395.56;5001328;28;20034;-54
2021/11/30 03:29:57;;;;;;;6.22;4.75;;;;;;;3.15;78.52;99395.44;5001595;28;20029;-55
2021/11/30 03:35:21;;;;;;;9.65;5.30;;;;;;;3.18;78.39;99386.19;5017321;28;20539;-55
2021/11/30 03:37:51;;;;;;;8.30;5.47;;;;;;;3.20;78.41;99374.31;5017403;28;20465;-54
2021/11/30 03:40:21;;;;;;;6.50;4.80;;;;;;;3.21;78.61;99377.72;5034794;28;20120;-54
2021/11/30 03:42:52;;;;;;;8.00;4.63;;;;;;;3.20;78.66;99374.31;5035491;28;20033;-55
2021/11/30 03:45:23;;;;;;;7.03;4.45;;;;;;;3.20;79.29;99358.06;5017467;28;20095;-54
2021/11/30 03:47:57;;;;;;;6.90;4.97;;;;;;;3.20;78.91;99360.63;5000998;28;20068;-54
2021/11/30 03:50:30;;;;;;;6.50;5.20;;;;;;;3.21;78.43;99364.91;5034830;28;20044;-54
2021/11/30 03:53:00;;;;;;;5.53;4.80;;;;;;;3.24;78.81;99359.06;5001139;28;20048;-54
2021/11/30 03:55:36;;;;;;;4.95;4.13;;;;;;;3.23;78.62;99350.47;5001110;28;20034;-54
2021/11/30 03:58:09;;;;;;;4.97;4.47;;;;;;;3.24;78.86;99348.81;5000827;28;20429;-55
2021/11/30 04:00:37;;;;;;;7.43;4.88;;;;;;;3.25;78.68;99346.28;5000614;28;20087;-54
2021/11/30 04:03:08;;;;;;;6.13;4.72;;;;;;;3.26;79.36;99353.16;5016920;28;20041;-54
2021/11/30 04:05:38;;;;;;;6.28;4.38;;;;;;;3.27;78.66;99343.78;5034777;28;20029;-55
2021/11/30 04:08:07;;;;;;;8.05;4.85;;;;;;;3.28;78.96;99340.38;5000662;28;20049;-54
2021/11/30 04:10:41;;;;;;;5.32;4.72;;;;;;;3.28;78.81;99333.59;5016850;28;20112;-56
2021/11/30 04:13:12;;;;;;;5.65;4.53;;;;;;;3.29;79.04;99332.78;5000523;28;20137;-54
2021/11/30 04:15:42;;;;;;;7.95;4.18;;;;;;;3.29;78.51;99325.09;5016785;28;20041;-54
2021/11/30 04:18:13;;;;;;;6.78;4.53;;;;;;;3.32;79.15;99343.13;5000463;28;20473;-54
2021/11/30 04:20:46;;;;;;;7.38;5.25;;;;;;;3.32;79.02;99316.63;5034201;28;20045;-54
2021/11/30 04:23:12;;;;;;;5.25;4.70;;;;;;;3.34;78.79;99330.34;5000825;28;20045;-54
2021/11/30 04:25:39;;;;;;;6.03;5.13;;;;;;;3.33;78.86;99321.81;5016479;28;20080;-55
2021/11/30 04:28:15;;;;;;;8.38;4.57;;;;;;;3.34;78.85;99320.13;5000391;28;20511;-55
2021/11/30 04:30:45;;;;;;;7.80;5.07;;;;;;;3.35;79.15;99312.47;4999934;28;20029;-55
2021/11/30 04:33:13;;;;;;;5.82;4.53;;;;;;;3.35;79.09;99286.84;5016258;28;20037;-55
2021/11/30 04:35:47;;;;;;;5.63;5.05;;;;;;;3.35;79.46;99312.47;5016635;28;20036;-54
2021/11/30 04:38:15;;;;;;;10.43;5.53;;;;;;;3.37;79.07;99296.28;5016767;28;20465;-55
2021/11/30 04:40:43;;;;;;;7.60;5.35;;;;;;;3.36;79.13;99290.31;5016261;28;20037;-55
2021/11/30 04:43:11;;;;;;;8.35;6.50;;;;;;;3.38;79.15;99293.78;4999096;28;20041;-54
2021/11/30 04:45:57;;;;;;;7.38;5.93;;;;;;;3.39;79.25;99305.78;5000266;28;20037;-54
2021/11/30 04:48:29;;;;;;;5.85;5.25;;;;;;;3.41;79.56;99295.56;4999749;28;20033;-54
2021/11/30 04:50:59;;;;;;;7.50;6.68;;;;;;;3.40;79.29;99301.50;4999886;28;20057;-54
2021/11/30 04:53:28;;;;;;;9.95;6.57;;;;;;;3.41;79.40;99293.00;4999962;28;20030;-55
2021/11/30 04:56:01;;;;;;;8.23;6.80;;;;;;;3.42;78.90;99281.94;5015905;28;20120;-54
2021/11/30 04:58:31;;;;;;;8.45;7.40;;;;;;;3.43;79.33;99288.81;4999473;28;20033;-54
2021/11/30 05:01:06;;;;;;;9.13;7.63;;;;;;;3.44;79.48;99280.31;4999549;28;20033;-54
2021/11/30 05:03:34;;;;;;;11.10;8.23;;;;;;;3.43;79.54;99287.09;5015919;28;20076;-55
2021/11/30 05:06:07;;;;;;;10.13;7.38;;;;;;;3.44;79.42;99293.97;4999490;28;20068;-54
2021/11/30 05:08:35;;;;;;;10.70;8.65;;;;;;;3.46;79.12;99288.91;5015623;28;20033;-54
2021/11/30 05:11:01;;;;;;;11.98;7.70;;;;;;;3.45;79.42;99285.47;4999778;28;20037;-54
2021/11/30 05:13:29;;;;;;;13.05;8.63;;;;;;;3.46;79.11;99274.41;5033517;28;20084;-54
2021/11/30 05:15:59;;;;;;;10.57;8.52;;;;;;;3.48;78.98;99282.16;5015705;28;20128;-54
2021/11/30 05:18:33;;;;;;;11.20;8.32;;;;;;;3.49;79.27;99289.03;5015814;28;20084;-54
2021/11/30 05:20:59;;;;;;;14.70;9.93;;;;;;;3.49;79.18;99283.91;4999167;28;20037;-55
2021/11/30 05:23:28;;;;;;;10.77;8.52;;;;;;;3.50;79.71;99272.84;4999253;28;20080;-54
2021/11/30 05:26:08;;;;;;;11.80;8.57;;;;;;;3.49;78.84;99277.06;4999958;28;20048;-54
2021/11/30 05:28:42;;;;;;;11.57;9.02;;;;;;;3.50;78.88;99271.13;4999456;28;20436;-54
2021/11/30 05:31:16;;;;;;;10.43;8.75;;;;;;;3.50;79.70;99276.25;4999258;28;20124;-54
2021/11/30 05:33:47;;;;;;;11.10;9.57;;;;;;;3.53;79.21;99272.03;4996161;28;20046;-54
2021/11/30 05:36:20;;;;;;;13.80;8.65;;;;;;;3.53;79.22;99272.03;4996301;28;20038;-55
2021/11/30 05:38:52;;;;;;;10.32;8.13;;;;;;;3.53;79.32;99261.78;4995777;28;20133;-54
2021/11/30 05:41:23;;;;;;;12.82;9.80;;;;;;;3.53;79.54;99254.97;4995866;28;20038;-54
2021/11/30 05:43:56;;;;;;;10.35;9.07;;;;;;;3.55;79.77;99260.16;4996141;28;20414;-54
2021/11/30 05:46:27;;;;;;;12.70;8.05;;;;;;;3.54;79.14;99260.97;4995728;28;20198;-54
2021/11/30 05:49:01;;;;;;;10.45;8.98;;;;;;;3.55;79.70;99267.84;5013484;28;20117;-54
2021/11/30 05:51:34;;;;;;;13.23;8.60;;;;;;;3.56;79.36;99270.44;5012340;28;20034;-54
2021/11/30 05:54:07;;;;;;;14.90;11.13;;;;;;;3.57;79.38;99266.22;4996462;28;20285;-55
2021/11/30 05:56:42;;;;;;;15.60;10.50;;;;;;;3.57;79.10;99269.63;5000106;28;20042;-54
2021/11/30 05:59:12;;;;;;;12.27;8.88;;;;;;;3.57;79.50;99256.81;4999506;28;20034;-54
2021/11/30 06:01:46;;;;;;;13.02;8.82;;;;;;;3.59;79.73;99267.97;4999848;28;20097;-54
2021/11/30 06:04:17;;;;;;;13.98;9.52;;;;;;;3.60;80.08;99267.16;4999630;28;20049;-54
2021/11/30 06:06:50;;;;;;;13.02;9.07;;;;;;;3.61;79.35;99268.91;4999197;28;20072;-55
2021/11/30 06:09:26;;;;;;;13.68;10.23;;;;;;;3.59;80.10;99272.22;5016351;28;20037;-55
2021/11/30 06:11:56;;;;;;;12.18;9.13;;;;;;;3.60;79.40;99269.72;4999705;28;20038;-54
2021/11/30 06:14:29;;;;;;;11.68;9.52;;;;;;;3.61;80.22;99271.47;5017448;28;20046;-55
2021/11/30 06:17:02;;;;;;;13.00;9.13;;;;;;;3.61;79.61;99268.91;4999223;28;20507;-55
2021/11/30 06:19:35;;;;;;;13.23;10.10;;;;;;;3.63;79.74;99269.84;4999929;28;20034;-55
2021/11/30 06:22:03;;;;;;;12.43;8.70;;;;;;;3.62;79.56;99270.66;4999742;28;20030;-54
2021/11/30 06:24:36;;;;;;;12.48;9.77;;;;;;;3.63;79.86;99281.75;5015459;28;20551;-54
2021/11/30 06:27:11;;;;;;;11.38;9.18;;;;;;;3.64;79.30;99271.56;4999057;28;20560;-55
2021/11/30 06:29:41;;;;;;;10.63;8.55;;;;;;;3.64;80.12;99270.69;5016594;28;20046;-54
2021/11/30 06:32:14;;;;;;;14.05;9.70;;;;;;;3.65;79.78;99282.69;5016043;28;20069;-54
2021/11/30 06:34:48;;;;;;;12.32;9.50;;;;;;;3.66;79.59;99281.84;4999005;28;20529;-54
2021/11/30 06:37:22;;;;;;;15.02;10.63;;;;;;;3.66;79.82;99280.16;4999359;28;20045;-54
2021/11/30 06:39:52;;;;;;;;;;;;;;;3.66;80.00;99269.91;4999488;28;20138;-55
2021/11/30 06:42:23;;;;;;;13.10;9.00;;;;;;;3.64;79.53;99269.00;4998735;28;19925;-54
2021/11/30 06:44:52;;;;;;;14.05;10.05;;;;;;;3.65;80.10;99273.31;4998684;28;20513;-54
2021/11/30 06:47:25;;;;;;;12.43;8.88;;;;;;;3.67;79.98;99278.47;4999009;28;20390;-55
2021/11/30 06:49:56;;;;;;;9.77;8.70;;;;;;;3.68;80.06;99274.22;4998910;28;20042;-55
2021/11/30 06:52:26;;;;;;;15.32;9.38;;;;;;;3.70;80.26;99270.88;4998649;28;20579;-56
2021/11/30 06:54:56;;;;;;;12.13;9.52;;;;;;;3.72;79.76;99273.50;4998969;28;20128;-55
2021/11/30 06:57:28;;;;;;;11.40;8.30;;;;;;;3.70;80.18;99268.31;4998411;28;20501;-55
2021/11/30 07:00:04;;;;;;;10.15;8.60;;;;;;;3.70;79.62;99272.56;4998782;28;20052;-55
2021/11/30 07:02:37;;;;;;;12.55;7.40;;;;;;;3.70;80.39;99281.16;5014963;28;20045;-54
2021/11/30 07:05:19;;;;;;;11.68;8.77;;;;;;;3.72;80.29;99270.94;5014863;28;20046;-55
2021/11/30 07:10:52;;;;;;;9.93;7.15;;;;;;;3.75;80.65;99288.97;5014716;28;20460;-54
2021/11/30 07:13:30;;;;;;;9.82;7.20;;;;;;;3.75;80.34;99282.13;5014735;28;20030;-55
2021/11/30 07:16:05;;;;;;;8.77;7.00;;;;;;;3.75;79.52;99274.44;5016213;28;20077;-54
2021/11/30 07:18:34;;;;;;;10.27;7.95;;;;;;;3.78;80.14;99281.38;4998834;28;20038;-56
2021/11/30 07:21:05;;;;;;;10.25;7.82;;;;;;;3.79;79.82;99283.13;4997874;28;20049;-54
2021/11/30 07:23:35;;;;;;;9.10;6.88;;;;;;;3.79;80.54;99280.56;4998276;28;20482;-54
2021/11/30 07:26:06;;;;;;;9.55;6.88;;;;;;;3.80;80.07;99275.47;4997940;28;20123;-55
2021/11/30 07:28:36;;;;;;;9.93;7.63;;;;;;;3.81;80.20;99286.59;4997676;28;20037;-55
2021/11/30 07:31:12;;;;;;;8.93;8.02;;;;;;;3.82;80.62;99275.50;4998452;28;20207;-54
2021/11/30 07:33:44;;;;;;;6.93;6.13;;;;;;;3.83;80.46;99279.81;5014099;28;20489;-55
2021/11/30 07:36:18;;;;;;;8.75;5.80;;;;;;;3.84;80.42;99273.00;5014211;28;20038;-55
2021/11/30 07:38:53;;;;;;;9.07;6.40;;;;;;;3.85;80.50;99280.72;4998153;28;20038;-54
2021/11/30 07:41:23;;;;;;;7.57;6.22;;;;;;;3.85;80.27;99280.72;5015580;28;20505;-55
2021/11/30 07:43:54;;;;;;;7.60;6.57;;;;;;;3.87;80.30;99276.53;4997622;28;20037;-54
2021/11/30 07:46:25;;;;;;;7.10;6.40;;;;;;;3.86;80.38;99282.47;4997897;28;20448;-55
2021/11/30 07:48:59;;;;;;;7.32;6.30;;;;;;;3.88;80.21;99272.28;4997510;28;20038;-55
2021/11/30 07:51:33;;;;;;;10.52;6.78;;;;;;;3.90;80.41;99291.13;5013627;28;20037;-54
2021/11/30 07:54:06;;;;;;;8.70;5.70;;;;;;;3.89;80.50;99279.16;5014330;28;20048;-54
2021/11/30 07:56:37;;;;;;;7.05;6.20;;;;;;;3.89;80.66;99274.88;5013894;28;20026;-55
2021/11/30 07:59:08;;;;;;;6.53;5.80;;;;;;;3.89;80.04;99274.88;4997488;28;20038;-54
2021/11/30 08:01:39;;;;;;;7.03;6.07;;;;;;;3.90;80.16;99280.88;5013388;28;20046;-54
2021/11/30 08:04:09;;;;;;;6.45;5.75;;;;;;;3.92;80.43;99285.25;4998005;28;20049;-55
2021/11/30 08:06:40;;;;;;;9.77;6.47;;;;;;;3.90;79.79;99274.06;4997752;28;20049;-55
2021/11/30 08:09:13;;;;;;;7.78;6.97;;;;;;;3.90;80.56;99261.25;4997317;28;20037;-54
2021/11/30 08:11:47;;;;;;;6.43;5.82;;;;;;;3.91;80.31;99268.13;4997109;28;20084;-54
2021/11/30 08:14:20;;;;;;;6.72;5.70;;;;;;;3.92;80.49;99263.84;4997070;28;20041;-55
2021/11/30 08:16:54;;;;;;;6.68;5.97;;;;;;;3.92;80.45;99264.72;5013995;28;20037;-54
2021/11/30 08:19:28;;;;;;;6.28;5.32;;;;;;;3.93;80.44;99279.28;4997155;28;20124;-54
2021/11/30 08:22:02;;;;;;;7.32;6.50;;;;;;;3.92;80.34;99264.72;4997170;28;20038;-54
2021/11/30 08:24:35;;;;;;;7.47;6.75;;;;;;;3.93;80.42;99265.59;4996941;28;20121;-54
2021/11/30 08:27:09;;;;;;;6.22;5.60;;;;;;;3.93;80.62;99263.03;4997290;28;20048;-54
2021/11/30 08:29:40;;;;;;;8.13;6.05;;;;;;;3.97;80.64;99277.69;4997446;28;20512;-54
2021/11/30 08:32:13;;;;;;;8.13;6.45;;;;;;;4.00;80.40;99279.47;4997165;28;20030;-54
2021/11/30 08:34:47;;;;;;;7.35;6.15;;;;;;;4.02;80.64;99277.81;5013205;28;20397;-55
2021/11/30 08:37:22;;;;;;;7.90;6.45;;;;;;;4.02;80.70;99268.44;4996696;28;20084;-54
2021/11/30 08:39:52;;;;;;;7.65;6.55;;;;;;;4.02;80.68;99271.00;4996963;28;20461;-55
2021/11/30 08:42:26;;;;;;;7.45;6.10;;;;;;;4.03;80.66;99266.72;5013398;28;20092;-54
2021/11/30 08:44:57;;;;;;;;;;;;;;;4.04;80.39;99269.38;5013388;28;20048;-54
2021/11/30 08:47:28;;;;;;;6.57;5.97;;;;;;;4.04;80.67;99273.59;5012850;28;19913;-55
2021/11/30 08:49:59;;;;;;;7.35;6.40;;;;;;;4.03;80.35;99272.75;4996309;28;20121;-54
2021/11/30 08:52:33;;;;;;;6.73;6.07;;;;;;;4.05;81.03;99277.91;4996945;28;20049;-54
2021/11/30 08:55:04;;;;;;;9.02;5.97;;;;;;;4.05;81.18;99270.22;5012920;28;20124;-55
2021/11/30 08:57:35;;;;;;;8.45;5.82;;;;;;;4.06;80.88;99266.84;4996718;28;20038;-54
2021/11/30 09:00:08;;;;;;;6.18;5.57;;;;;;;4.07;80.60;99276.28;5012657;28;20048;-54
2021/11/30 09:02:40;;;;;;;7.60;6.53;;;;;;;4.08;80.62;99265.19;5014456;28;20046;-55
2021/11/30 09:05:15;;;;;;;9.10;6.18;;;;;;;4.09;80.63;99274.63;4996278;28;20080;-55
2021/11/30 09:07:45;;;;;;;;;;;;;;;4.09;80.27;99272.91;5013204;28;20493;-55
2021/11/30 09:10:18;;;;;;;6.18;5.05;;;;;;;4.10;80.57;99289.19;4996537;28;19991;-54
2021/11/30 09:12:52;;;;;;;5.70;5.10;;;;;;;4.10;80.95;99274.66;4996203;28;20099;-54
2021/11/30 09:15:22;;;;;;;6.57;5.88;;;;;;;4.13;80.52;99276.44;5012891;28;20045;-55
2021/11/30 09:17:56;;;;;;;6.32;5.20;;;;;;;4.15;80.26;99276.50;4996512;28;20052;-54
2021/11/30 09:20:31;;;;;;;6.50;5.47;;;;;;;4.15;80.73;99277.34;4996359;28;20034;-55
2021/11/30 09:23:02;;;;;;;8.70;5.00;;;;;;;4.17;80.48;99275.69;5012574;28;20042;-54
2021/11/30 09:25:34;;;;;;;6.72;5.38;;;;;;;4.18;81.06;99272.31;5013967;28;20038;-54
2021/11/30 09:28:06;;;;;;;6.57;5.43;;;;;;;4.19;80.88;99268.94;4996606;28;20046;-54
2021/11/30 09:30:37;;;;;;;5.63;5.05;;;;;;;4.20;80.92;99260.41;4999466;28;20045;-55
2021/11/30 09:33:06;;;;;;;5.80;4.63;;;;;;;4.21;80.27;99269.84;5001215;28;20038;-54
2021/11/30 09:35:39;;;;;;;6.07;5.47;;;;;;;4.22;81.32;99271.59;5003392;28;20072;-55
2021/11/30 09:38:10;;;;;;;4.93;4.38;;;;;;;4.21;80.81;99272.41;5019805;28;20095;-55
2021/11/30 09:40:43;;;;;;;5.75;4.93;;;;;;;4.24;80.91;99279.31;5003548;28;20501;-55
2021/11/30 09:43:15;;;;;;;4.95;4.45;;;;;;;4.24;81.18;99269.94;5037466;28;20037;-54
2021/11/30 09:45:48;;;;;;;5.38;4.88;;;;;;;4.24;80.80;99269.94;5019614;28;20037;-55
2021/11/30 09:48:21;;;;;;;6.00;5.43;;;;;;;4.26;80.98;99272.53;5037228;28;20481;-55
2021/11/30 09:50:55;;;;;;;6.47;5.13;;;;;;;4.26;80.78;99273.44;5002907;28;20087;-54
2021/11/30 09:53:26;;;;;;;;;;;;;;;4.28;81.07;99267.47;5003975;28;20045;-55
2021/11/30 09:55:56;;;;;;;5.20;4.25;;;;;;;4.28;80.87;99267.47;5019639;28;20287;-54
2021/11/30 09:58:30;;;;;;;5.68;4.80;;;;;;;4.29;80.90;99269.19;5003065;28;20448;-55
2021/11/30 10:01:03;;;;;;;4.70;4.30;;;;;;;4.30;80.62;99255.53;5018933;28;20044;-55
2021/11/30 10:03:36;;;;;;;5.65;5.07;;;;;;;4.32;81.06;99253.88;5037447;28;20034;-54
2021/11/30 10:06:09;;;;;;;5.60;4.45;;;;;;;4.34;81.28;99250.56;5002883;28;20491;-54
2021/11/30 10:08:44;;;;;;;4.80;4.30;;;;;;;4.33;80.95;99248.81;5002701;28;20120;-55
2021/11/30 10:11:35;;;;;;;5.40;4.30;;;;;;;4.36;80.38;99245.47;5002711;28;20484;-54
2021/11/30 10:14:16;;;;;;;4.25;3.85;;;;;;;4.36;80.92;99245.47;5019187;28;20045;-55
2021/11/30 10:17:19;;;;;;;4.82;4.32;;;;;;;4.37;81.06;99258.31;5036794;28;20504;-55
2021/11/30 10:20:11;;;;;;;5.30;4.80;;;;;;;4.37;81.51;99253.19;5036985;28;20040;-55
2021/11/30 10:22:48;;;;;;;4.30;3.58;;;;;;;4.39;80.42;99253.25;5036606;28;20029;-55
2021/11/30 10:25:25;;;;;;;4.50;4.10;;;;;;;4.38;80.65;99262.63;5018992;28;20128;-54
2021/11/30 10:27:58;;;;;;;4.13;3.72;;;;;;;4.39;80.95;99258.38;5002390;28;20045;-54
2021/11/30 10:30:31;;;;;;;5.53;4.15;;;;;;;4.39;81.21;99264.38;5037014;28;20033;-54
2021/11/30 10:33:02;;;;;;;5.13;4.23;;;;;;;4.40;80.79;99268.66;5036520;28;20524;-55
2021/11/30 10:35:33;;;;;;;4.38;3.78;;;;;;;4.42;81.40;99271.31;5036223;28;20276;-55
2021/11/30 10:38:04;;;;;;;4.88;3.65;;;;;;;4.44;81.21;99277.31;5036348;28;20056;-55
2021/11/30 10:40:37;;;;;;;4.43;4.03;;;;;;;4.45;81.00;99276.50;5035354;28;20124;-55
2021/11/30 10:43:06;;;;;;;5.82;3.72;;;;;;;4.46;81.17;99273.09;5035556;28;20033;-54
2021/11/30 10:45:52;;;;;;;4.45;3.60;;;;;;;4.47;81.29;99281.69;5002045;28;20033;-54
2021/11/30 10:48:27;;;;;;;4.32;3.92;;;;;;;4.47;80.96;99284.25;5018546;28;20038;-54
2021/11/30 10:51:01;;;;;;;4.10;3.70;;;;;;;4.48;81.05;99286.00;5018338;28;20041;-54
2021/11/30 10:53:34;;;;;;;5.18;4.32;;;;;;;4.47;80.88;99294.53;5018626;28;20447;-55
2021/11/30 10:56:06;;;;;;;6.60;4.22;;;;;;;4.56;81.27;99284.50;5036185;28;20127;-58
2021/11/30 10:58:44;;;;;;;6.40;4.35;;;;;;;4.60;81.36;99291.47;5018426;28;20065;-56
2021/11/30 11:01:19;;;;;;;;;;;;;;;4.64;81.81;99290.75;5002126;28;20033;-57
2021/11/30 11:04:02;;;;;;;;;;;;;;;4.65;81.44;99279.66;5018765;28;19924;-58
2021/11/30 11:06:35;;;;;;;3.92;3.53;;;;;;;4.67;81.78;99277.09;5035883;28;19925;-58
2021/11/30 11:09:11;;;;;;;5.28;4.78;;;;;;;4.69;81.60;99270.31;5001884;28;20041;-58
2021/11/30 11:11:44;;;;;;;5.50;4.22;;;;;;;4.70;81.77;99266.94;5001477;28;20030;-59
2021/11/30 11:14:25;;;;;;;5.78;4.38;;;;;;;4.71;81.47;99266.97;5018206;28;20034;-58
2021/11/30 11:17:06;;;;;;;5.68;4.95;;;;;;;4.76;82.42;99273.91;5001523;28;20033;-55
2021/11/30 11:19:44;;;;;;;6.60;5.00;;;;;;;4.73;81.60;99274.72;5001221;28;20037;-55
2021/11/30 11:22:20;;;;;;;8.73;4.80;;;;;;;4.71;81.59;99263.53;5001374;28;20038;-55
2021/11/30 11:24:54;;;;;;;5.35;4.85;;;;;;;4.69;81.68;99265.19;5035872;28;20041;-55
2021/11/30 11:27:41;;;;;;;6.45;5.15;;;;;;;4.69;81.87;99262.63;5017311;28;20041;-54
2021/11/30 11:30:13;;;;;;;5.15;4.63;;;;;;;4.68;81.87;99268.59;5017577;28;20128;-55
2021/11/30 11:32:46;;;;;;;7.15;4.60;;;;;;;4.68;81.63;99269.44;5035225;28;20516;-55
2021/11/30 11:35:22;;;;;;;7.97;5.90;;;;;;;4.68;80.83;99279.69;5001176;28;20049;-54
2021/11/30 11:37:59;;;;;;;5.63;5.10;;;;;;;4.70;81.92;99277.19;5035352;28;20124;-55
2021/11/30 11:40:33;;;;;;;5.80;4.95;;;;;;;4.70;81.77;99267.78;5017435;28;20072;-55
2021/11/30 11:43:05;;;;;;;;;;;;;;;4.70;82.11;99275.47;5001481;28;20038;-55
2021/11/30 11:45:35;;;;;;;6.18;5.30;;;;;;;4.71;81.72;99271.25;5017563;28;19920;-55
2021/11/30 11:48:08;;;;;;;6.15;5.50;;;;;;;4.70;81.47;99293.44;5000806;28;20041;-55
2021/11/30 11:50:50;;;;;;;6.43;5.63;;;;;;;4.70;81.76;99280.63;5017228;28;20392;-55
2021/11/30 11:53:30;;;;;;;7.38;5.45;;;;;;;4.70;81.84;99279.75;5000539;28;20045;-54
2021/11/30 11:56:23;;;;;;;6.35;5.60;;;;;;;4.71;81.09;99274.66;5017306;28;20037;-54
2021/11/30 11:59:08;;;;;;;8.82;6.57;;;;;;;4.71;81.48;99278.94;5035096;28;20095;-54
2021/11/30 12:01:47;;;;;;;8.55;6.13;;;;;;;4.72;81.56;99271.25;5017687;28;20033;-54
2021/11/30 12:04:18;;;;;;;7.95;6.45;;;;;;;4.72;81.75;99261.00;5034816;28;20531;-54
2021/11/30 12:07:01;;;;;;;7.90;6.45;;;;;;;4.73;81.67;99257.59;5017394;28;20452;-55
2021/11/30 12:09:31;;;;;;;9.50;7.18;;;;;;;4.73;81.51;99252.47;5000747;28;20048;-54
2021/11/30 12:12:21;;;;;;;7.82;7.03;;;;;;;4.75;81.90;99257.63;5000529;28;20033;-55